TimeEDT,TemperatureF,Dew PointF,Humidity,Sea Level PressureIn,VisibilityMPH,Wind Direction,Wind SpeedMPH,Gust SpeedMPH,PrecipitationIn,Events,Conditions,WindDirDegrees,DateUTC
12:51 AM,63.0,48.0,58,29.95,10.0,SSE,4.6,-,N/A,,Mostly Cloudy,160,2012-04-16 04:51:00
1:51 AM,63.0,48.0,58,29.95,10.0,South,4.6,-,N/A,,Mostly Cloudy,180,2012-04-16 05:51:00
2:51 AM,64.9,48.0,54,29.94,10.0,South,5.8,-,N/A,,Mostly Cloudy,190,2012-04-16 06:51:00
3:51 AM,66.9,48.0,51,29.94,10.0,SSW,5.8,-,N/A,,Mostly Cloudy,200,2012-04-16 07:51:00
4:51 AM,66.0,48.9,54,29.95,10.0,South,5.8,-,N/A,,Mostly Cloudy,190,2012-04-16 08:51:00
5:51 AM,66.0,48.9,54,29.95,10.0,South,5.8,-,N/A,,Overcast,170,2012-04-16 09:51:00
6:51 AM,66.0,50.0,56,29.96,10.0,South,8.1,-,N/A,,Mostly Cloudy,180,2012-04-16 10:51:00
7:51 AM,66.9,51.1,57,29.96,10.0,South,5.8,-,N/A,,Mostly Cloudy,180,2012-04-16 11:51:00
8:51 AM,71.1,52.0,51,29.96,10.0,SW,20.7,29.9,N/A,,Partly Cloudy,220,2012-04-16 12:51:00
9:51 AM,73.9,53.1,48,29.94,10.0,SSW,20.7,31.1,N/A,,Partly Cloudy,210,2012-04-16 13:51:00
10:51 AM,75.9,53.1,45,29.95,10.0,SSW,26.5,33.4,N/A,,Partly Cloudy,210,2012-04-16 14:51:00
11:51 AM,78.8,53.6,42,29.94,10.0,SW,21.9,31.1,N/A,,Scattered Clouds,230,2012-04-16 15:51:00
12:51 PM,80.1,54.0,40,29.93,10.0,SW,20.7,28.8,N/A,,Mostly Cloudy,230,2012-04-16 16:51:00
1:51 PM,80.1,55.0,42,29.92,10.0,SW,15.0,31.1,N/A,,Mostly Cloudy,220,2012-04-16 17:51:00
2:51 PM,81.0,55.0,41,29.90,10.0,SSW,20.7,27.6,N/A,,Mostly Cloudy,210,2012-04-16 18:51:00
3:51 PM,82.0,54.0,38,29.87,10.0,SW,24.2,31.1,N/A,,Mostly Cloudy,220,2012-04-16 19:51:00
4:51 PM,80.1,53.1,39,29.90,10.0,SW,13.8,25.3,N/A,,Overcast,220,2012-04-16 20:51:00
5:51 PM,80.1,54.0,40,29.90,10.0,WSW,18.4,27.6,N/A,,Scattered Clouds,240,2012-04-16 21:51:00
6:51 PM,78.1,55.0,45,29.92,10.0,West,11.5,23.0,N/A,,Partly Cloudy,260,2012-04-16 22:51:00
7:51 PM,75.9,51.1,42,29.95,10.0,WSW,13.8,28.8,N/A,,Scattered Clouds,250,2012-04-16 23:51:00
8:51 PM,73.0,46.0,38,30.00,10.0,West,10.4,18.4,N/A,,Partly Cloudy,270,2012-04-17 00:51:00
9:51 PM,70.0,45.0,41,30.05,10.0,West,16.1,23.0,N/A,,Partly Cloudy,270,2012-04-17 01:51:00
10:51 PM,66.0,46.0,48,30.09,10.0,WNW,20.7,25.3,N/A,,Clear,290,2012-04-17 02:51:00
11:51 PM,62.1,42.1,48,30.12,10.0,West,20.7,28.8,N/A,,Partly Cloudy,280,2012-04-17 03:51:00